Time;durP1;ratioP1;P1;durP2;ratioP2;P2;SDS_P1;SDS_P2;PMS_P1;PMS_P2;Temp;Humidity;BMP_temperature;BMP_pressure;BME280_temperature;BME280_humidity;BME280_pressure;Samples;Min_cycle;Max_cycle;Signal;HPM_P1;HPM_P2
2021/11/08 00:01:09;;;;;;;15.45;11.18;;;;;;;12.27;85.85;96741.63;5072943;28;20049;-65
2021/11/08 00:03:37;;;;;;;21.98;11.43;;;;;;;12.28;85.78;96742.50;5073328;28;20033;-66
2021/11/08 00:06:05;;;;;;;20.27;11.05;;;;;;;12.30;85.67;96736.25;5073416;28;20025;-63
2021/11/08 00:08:33;;;;;;;26.50;12.02;;;;;;;12.29;85.57;96729.31;5073458;28;20064;-63
2021/11/08 00:10:58;;;;;;;17.45;10.15;;;;;;;12.27;85.49;96712.78;5073309;28;20020;-67
2021/11/08 00:13:25;;;;;;;19.52;11.50;;;;;;;12.30;85.04;96690.81;5073060;28;20039;-64
2021/11/08 00:16:45;;;;;;;18.83;11.25;;;;;;;12.33;84.81;96677.56;5073367;28;20027;-62
2021/11/08 00:19:00;;;;;;;17.00;10.95;;;;;;;12.37;84.34;96669.50;5072708;28;20448;-62
2021/11/08 00:21:30;;;;;;;17.63;10.45;;;;;;;12.37;84.51;96666.88;5073167;28;20031;-63
2021/11/08 00:23:56;;;;;;;24.58;11.30;;;;;;;12.40;84.74;96663.25;5073178;28;20033;-64
2021/11/08 00:26:21;;;;;;;15.30;10.20;;;;;;;12.43;84.57;96657.06;5073085;28;20104;-64
2021/11/08 00:28:47;;;;;;;18.48;9.88;;;;;;;12.46;84.03;96651.69;5072995;28;20035;-64
2021/11/08 00:31:13;;;;;;;15.07;9.95;;;;;;;12.42;83.53;96642.22;5073165;28;20016;-63
2021/11/08 00:33:39;;;;;;;15.73;9.40;;;;;;;12.36;83.86;96631.09;5072917;28;20158;-62
2021/11/08 00:36:05;;;;;;;14.80;9.40;;;;;;;12.37;83.23;96626.66;5072895;28;20104;-66
2021/11/08 00:38:31;;;;;;;19.75;8.13;;;;;;;12.29;82.28;96618.31;5073013;28;20040;-66
2021/11/08 00:40:58;;;;;;;12.43;6.15;;;;;;;12.37;79.01;96614.41;5071632;28;20056;-63
2021/11/08 00:43:24;;;;;;;15.25;6.90;;;;;;;12.58;77.97;96605.69;5073021;28;20078;-66
2021/11/08 00:45:51;;;;;;;9.45;5.80;;;;;;;12.77;77.50;96596.03;5072935;28;20441;-64
2021/11/08 00:48:20;;;;;;;16.92;7.05;;;;;;;12.93;77.48;96600.56;5072922;28;20039;-66
2021/11/08 00:50:48;;;;;;;10.75;6.68;;;;;;;13.02;75.88;96604.53;5072979;28;20016;-66
2021/11/08 00:53:15;;;;;;;13.30;6.38;;;;;;;13.12;76.50;96607.56;5072839;28;20033;-63
2021/11/08 00:55:41;;;;;;;17.42;6.90;;;;;;;13.14;76.48;96597.84;5072785;28;20064;-65
2021/11/08 00:58:14;;;;;;;10.48;6.68;;;;;;;13.01;76.67;96592.34;5072811;28;20025;-63
2021/11/08 01:00:40;;;;;;;8.95;6.60;;;;;;;12.83;77.46;96589.66;5072502;28;20506;-63
2021/11/08 01:03:06;;;;;;;12.43;6.90;;;;;;;12.75;77.97;96600.50;5072645;28;20022;-64
2021/11/08 01:05:32;;;;;;;15.10;6.90;;;;;;;12.54;78.12;96610.19;5072690;28;20069;-61
2021/11/08 01:07:59;;;;;;;16.65;7.90;;;;;;;12.44;78.58;96609.78;5072637;28;20052;-65
2021/11/08 01:10:25;;;;;;;17.20;9.13;;;;;;;12.36;79.64;96606.63;5072574;28;20070;-65
2021/11/08 01:12:51;;;;;;;20.65;9.77;;;;;;;12.26;80.29;96607.00;5075388;28;20021;-62
2021/11/08 01:15:17;;;;;;;16.10;9.07;;;;;;;12.19;79.99;96605.59;5076766;28;20028;-63
2021/11/08 01:17:44;;;;;;;17.92;8.15;;;;;;;12.15;79.97;96600.53;5076508;28;20384;-64
2021/11/08 01:20:11;;;;;;;12.80;8.02;;;;;;;12.04;79.79;96614.09;5076470;28;20026;-64
2021/11/08 01:22:41;;;;;;;15.40;9.02;;;;;;;11.92;79.78;96613.69;5076329;28;20490;-64
2021/11/08 01:25:08;;;;;;;15.18;8.45;;;;;;;11.86;80.00;96603.47;5076377;28;20104;-66
2021/11/08 01:27:44;;;;;;;14.75;9.32;;;;;;;11.84;80.13;96594.81;5076248;28;20374;-65
2021/11/08 01:30:17;;;;;;;14.52;7.75;;;;;;;11.77;79.53;96606.47;5076394;28;20020;-63
2021/11/08 01:32:55;;;;;;;19.25;10.27;;;;;;;11.71;80.06;96595.31;5076122;28;20515;-65
2021/11/08 01:35:29;;;;;;;18.35;9.40;;;;;;;11.68;80.28;96590.22;5076226;28;20028;-67
2021/11/08 01:38:03;;;;;;;12.48;8.38;;;;;;;11.64;79.40;96588.63;5076081;28;20044;-66
2021/11/08 01:40:30;;;;;;;15.15;9.10;;;;;;;11.54;79.86;96585.56;5076103;28;20032;-62
2021/11/08 01:42:55;;;;;;;19.08;9.82;;;;;;;11.40;79.81;96578.25;5076015;28;20478;-61
2021/11/08 01:45:21;;;;;;;17.60;8.60;;;;;;;11.35;79.77;96588.91;5076170;28;20043;-62
2021/11/08 01:47:47;;;;;;;15.73;9.50;;;;;;;11.33;79.80;96593.38;5075823;28;20025;-63
2021/11/08 01:50:12;;;;;;;11.93;9.52;;;;;;;11.33;79.40;96582.03;5075840;28;20035;-63
2021/11/08 01:52:38;;;;;;;17.67;9.07;;;;;;;11.18;79.53;96576.50;5075924;28;20020;-65
2021/11/08 01:55:05;;;;;;;10.98;8.13;;;;;;;11.07;79.38;96576.06;5075867;28;20398;-62
2021/11/08 01:57:31;;;;;;;14.27;8.20;;;;;;;10.96;79.29;96576.50;5074547;28;20111;-66
2021/11/08 01:59:59;;;;;;;18.58;8.20;;;;;;;10.76;79.49;96572.03;5075358;28;20483;-63
2021/11/08 02:02:26;;;;;;;16.17;8.05;;;;;;;10.63;79.87;96562.06;5075804;28;20078;-62
2021/11/08 02:04:52;;;;;;;18.05;8.02;;;;;;;10.54;80.21;96565.84;5075695;28;20017;-62
2021/11/08 02:07:18;;;;;;;12.35;7.95;;;;;;;10.48;80.21;96563.47;5075648;28;20047;-64
2021/11/08 02:09:43;;;;;;;16.65;7.78;;;;;;;10.46;80.22;96573.13;5075498;28;20017;-65
2021/11/08 02:12:10;;;;;;;15.70;8.50;;;;;;;10.43;80.12;96565.38;5075579;28;20027;-66
2021/11/08 02:14:37;;;;;;;18.45;7.57;;;;;;;10.36;80.36;96564.75;5075368;28;20037;-65
2021/11/08 02:17:03;;;;;;;15.68;7.63;;;;;;;10.29;80.93;96569.34;5075487;28;20033;-65
2021/11/08 02:19:29;;;;;;;13.55;8.73;;;;;;;10.19;80.93;96557.50;5075374;28;20032;-65
2021/11/08 02:21:56;;;;;;;21.30;10.93;;;;;;;10.11;81.15;96558.66;5075280;28;20029;-67
2021/11/08 02:24:25;;;;;;;17.00;10.05;;;;;;;10.16;80.89;96555.88;5075073;28;20352;-65
2021/11/08 02:26:51;;;;;;;23.75;10.90;;;;;;;10.14;80.34;96554.22;5075189;28;20056;-63
2021/11/08 02:29:16;;;;;;;19.05;10.13;;;;;;;10.11;80.13;96550.81;5075275;28;20025;-66
2021/11/08 02:31:43;;;;;;;18.17;8.48;;;;;;;10.13;80.07;96550.75;5075186;28;20032;-63
2021/11/08 02:34:08;;;;;;;13.93;8.27;;;;;;;10.13;79.74;96549.88;5074988;28;20078;-62
2021/11/08 02:36:41;;;;;;;10.63;6.85;;;;;;;10.06;80.06;96549.28;5074967;28;20483;-62
2021/11/08 02:39:10;;;;;;;14.82;6.70;;;;;;;10.03;80.41;96546.75;5075225;28;20368;-63
2021/11/08 02:41:36;;;;;;;13.73;6.93;;;;;;;9.97;80.80;96547.84;5075050;28;20367;-65
2021/11/08 02:44:03;;;;;;;13.77;6.78;;;;;;;9.84;81.29;96553.50;5074864;28;20028;-65
2021/11/08 02:46:30;;;;;;;14.55;5.88;;;;;;;9.82;81.55;96547.44;5074923;28;20033;-65
2021/11/08 02:48:58;;;;;;;14.50;5.18;;;;;;;9.85;81.26;96549.97;5074729;28;20020;-63
2021/11/08 02:51:29;;;;;;;11.52;5.40;;;;;;;9.88;80.83;96548.16;5074609;28;20112;-63
2021/11/08 02:54:27;;;;;;;10.05;6.07;;;;;;;9.84;80.56;96540.44;5074711;28;20035;-66
2021/11/08 02:56:46;;;;;;;11.82;5.97;;;;;;;9.83;81.05;96548.31;5074441;28;20078;-63
2021/11/08 02:59:11;;;;;;;13.82;6.00;;;;;;;9.82;81.07;96550.06;5074619;28;20437;-64
2021/11/08 03:01:37;;;;;;;8.88;5.18;;;;;;;9.82;81.20;96550.06;5074327;28;20040;-66
2021/11/08 03:04:11;;;;;;;11.93;6.75;;;;;;;9.78;81.08;96548.47;5074518;28;20031;-62
2021/11/08 03:06:37;;;;;;;12.77;6.57;;;;;;;9.77;80.79;96544.16;5074642;28;20040;-65
2021/11/08 03:09:14;;;;;;;10.98;6.30;;;;;;;9.74;80.61;96539.03;5074405;28;20024;-64
2021/11/08 03:11:40;;;;;;;9.75;4.93;;;;;;;9.73;80.66;96542.56;5074420;28;20379;-66
2021/11/08 03:14:07;;;;;;;13.52;5.88;;;;;;;9.62;80.57;96545.53;5074106;28;20040;-62
2021/11/08 03:19:03;;;;;;;6.93;4.25;;;;;;;9.52;80.20;96549.38;5074314;28;20394;-65
2021/11/08 03:21:31;;;;;;;10.10;4.53;;;;;;;9.44;80.80;96547.00;5074231;28;20109;-61
2021/11/08 03:24:00;;;;;;;9.52;4.55;;;;;;;9.41;80.90;96534.06;5074070;28;20025;-63
2021/11/08 03:28:58;;;;;;;10.23;5.15;;;;;;;9.29;82.05;96535.31;5074021;28;20040;-61
2021/11/08 03:31:26;;;;;;;15.35;6.63;;;;;;;9.26;81.83;96538.88;5073803;28;20047;-64
2021/11/08 03:33:52;;;;;;;15.40;7.53;;;;;;;9.24;81.76;96530.25;5073717;28;20524;-66
2021/11/08 03:36:18;;;;;;;17.27;5.47;;;;;;;9.22;81.81;96532.06;5073436;28;20024;-64
2021/11/08 03:38:43;;;;;;;13.00;5.32;;;;;;;9.17;81.45;96523.53;5073749;28;20025;-64
2021/11/08 03:41:09;;;;;;;13.73;4.78;;;;;;;9.15;81.44;96525.34;5073725;28;20097;-64
2021/11/08 03:43:35;;;;;;;9.30;5.53;;;;;;;9.07;81.80;96525.59;5073744;28;20410;-62
2021/11/08 03:46:02;;;;;;;18.73;6.22;;;;;;;9.06;82.55;96529.94;5073710;28;20049;-64
2021/11/08 03:48:28;;;;;;;18.73;9.07;;;;;;;9.07;82.86;96528.19;5073518;28;20028;-63
2021/11/08 03:50:54;;;;;;;18.00;8.07;;;;;;;9.16;83.22;96535.72;5073565;28;20021;-62
2021/11/08 03:53:20;;;;;;;10.50;6.03;;;;;;;9.19;83.04;96530.41;5073514;28;20033;-63
2021/11/08 03:55:47;;;;;;;9.25;4.88;;;;;;;9.22;82.47;96532.06;5073542;28;20386;-65
2021/11/08 03:58:13;;;;;;;16.48;4.60;;;;;;;9.18;81.98;96531.31;5073505;28;20450;-62
2021/11/08 04:00:41;;;;;;;10.38;4.57;;;;;;;9.10;81.81;96523.72;5073198;28;20040;-62
2021/11/08 04:03:07;;;;;;;8.70;4.18;;;;;;;9.14;81.46;96524.47;5073508;28;20047;-65
2021/11/08 04:05:35;;;;;;;10.18;5.18;;;;;;;9.15;82.07;96520.97;5073573;28;20012;-64
2021/11/08 04:08:05;;;;;;;18.77;4.10;;;;;;;9.15;82.25;96517.50;5073329;28;20025;-63
2021/11/08 04:10:31;;;;;;;10.43;4.00;;;;;;;9.12;82.24;96513.22;5073296;28;20028;-64
2021/11/08 04:13:03;;;;;;;12.70;3.97;;;;;;;9.11;82.33;96516.75;5073061;28;20085;-60
2021/11/08 04:15:35;;;;;;;10.63;4.32;;;;;;;9.15;81.80;96514.91;5073215;28;20081;-63
2021/11/08 04:18:01;;;;;;;13.07;4.57;;;;;;;9.14;81.96;96515.78;5073196;28;20448;-64
2021/11/08 04:20:26;;;;;;;14.05;5.13;;;;;;;9.17;82.04;96519.16;5073192;28;20056;-63
2021/11/08 04:22:54;;;;;;;11.93;4.75;;;;;;;9.24;82.49;96519.78;5073210;28;20021;-65
2021/11/08 04:25:23;;;;;;;13.73;5.18;;;;;;;9.30;82.38;96521.38;5073013;28;20025;-62
2021/11/08 04:27:50;;;;;;;7.45;4.20;;;;;;;9.32;82.45;96517.81;5073014;28;20032;-64
2021/11/08 04:30:16;;;;;;;10.48;4.38;;;;;;;9.29;81.61;96515.28;5073004;28;20529;-63
2021/11/08 04:33:04;;;;;;;13.43;4.82;;;;;;;9.25;81.73;96511.09;5072965;28;20031;-62
2021/11/08 04:35:43;;;;;;;13.93;4.90;;;;;;;9.18;81.85;96507.81;5072989;28;20028;-65
2021/11/08 04:38:20;;;;;;;8.20;4.15;;;;;;;9.05;81.93;96515.19;5073037;28;20033;-65
2021/11/08 04:43:56;;;;;;;;;;;;;;;9.05;81.67;96509.97;5031459;28;20033;-64
2021/11/08 04:46:38;;;;;;;11.45;4.10;;;;;;;9.05;81.90;96509.97;5067364;28;19917;-63
2021/11/08 04:51:58;;;;;;;9.88;5.70;;;;;;;9.05;82.30;96509.97;5077106;28;20037;-65
2021/11/08 04:57:29;;;;;;;10.55;5.07;;;;;;;8.95;83.04;96503.34;5077147;28;20032;-65
2021/11/08 05:31:55;;;;;;;10.13;4.53;;;;;;;9.81;82.23;96519.63;5076271;28;20024;-61
2021/11/08 05:34:21;;;;;;;8.95;4.80;;;;;;;9.95;82.00;96523.50;5076210;28;20109;-62
2021/11/08 05:36:47;;;;;;;8.88;4.15;;;;;;;10.12;81.49;96528.16;5076135;28;20086;-64
2021/11/08 05:39:13;;;;;;;10.32;3.80;;;;;;;10.29;80.86;96530.13;5075043;28;20023;-67
2021/11/08 05:41:41;;;;;;;13.60;4.78;;;;;;;10.56;81.02;96532.66;5076003;28;20028;-63
2021/11/08 05:44:07;;;;;;;6.80;4.28;;;;;;;11.28;79.90;96535.09;5075965;28;20055;-65
2021/11/08 05:46:35;;;;;;;12.90;2.72;;;;;;;12.28;75.25;96535.31;5075950;28;20024;-64
2021/11/08 05:49:01;;;;;;;8.40;3.28;;;;;;;13.14;72.23;96522.56;5076033;28;20042;-67
2021/11/08 05:51:27;;;;;;;5.93;2.78;;;;;;;13.83;69.66;96531.47;5075885;28;20390;-63
2021/11/08 05:53:53;;;;;;;6.70;2.90;;;;;;;14.32;67.36;96530.69;5075717;28;20060;-64
2021/11/08 05:56:31;;;;;;;5.22;2.58;;;;;;;14.90;65.92;96541.66;5075865;28;20071;-63
2021/11/08 06:50:31;;;;;;;7.32;3.20;;;;;;;26.94;37.96;96555.25;5075163;28;20044;-66
2021/11/08 06:53:02;;;;;;;8.13;2.53;;;;;;;27.41;36.81;96557.59;5074551;28;20016;-63
2021/11/08 06:55:28;;;;;;;10.32;3.30;;;;;;;26.43;37.43;96549.81;5074577;28;20025;-67
2021/11/08 06:58:01;;;;;;;14.23;3.90;;;;;;;25.44;39.58;96553.34;5074680;28;20017;-67
2021/11/08 07:00:27;;;;;;;13.20;3.47;;;;;;;24.58;41.26;96546.31;5074303;28;20051;-65
2021/11/08 07:02:53;;;;;;;12.80;3.42;;;;;;;23.73;43.15;96545.22;5074655;28;20016;-64
2021/11/08 07:18:17;;;;;;;5.97;3.03;;;;;;;29.57;34.25;96534.84;5126890;27;20384;-66
2021/11/08 07:20:45;;;;;;;9.98;3.25;;;;;;;30.22;33.61;96521.84;5109573;28;20503;-64
2021/11/08 07:23:11;;;;;;;13.57;3.40;;;;;;;30.74;31.94;96521.13;5110673;28;20020;-63
2021/11/08 07:25:38;;;;;;;6.32;3.03;;;;;;;31.38;30.32;96514.25;5110732;28;20480;-65
2021/11/08 07:28:08;;;;;;;10.05;2.67;;;;;;;31.81;30.89;96523.38;5110698;28;20407;-63
2021/11/08 07:30:35;;;;;;;;;;;;;;;32.23;29.89;96520.84;5111045;28;20028;-64
2021/11/08 07:33:00;;;;;;;8.98;3.25;;;;;;;32.39;29.11;96521.56;5110584;28;19912;-65
2021/11/08 07:35:26;;;;;;;11.20;3.08;;;;;;;31.02;30.42;96525.88;5110492;28;20020;-63
2021/11/08 07:37:51;;;;;;;6.35;3.55;;;;;;;30.85;30.02;96523.38;5110531;28;20035;-66
2021/11/08 07:40:17;;;;;;;13.55;4.22;;;;;;;30.27;31.36;96530.25;5110597;28;20031;-64
2021/11/08 07:42:43;;;;;;;10.65;3.50;;;;;;;30.60;31.64;96530.91;5110398;28;20077;-63
2021/11/08 07:45:10;;;;;;;8.57;4.20;;;;;;;31.04;31.06;96522.97;5110298;28;20066;-66
2021/11/08 07:47:37;;;;;;;8.05;3.83;;;;;;;31.34;30.60;96514.81;5110331;28;20023;-66
2021/11/08 07:50:03;;;;;;;13.95;3.42;;;;;;;30.78;29.69;96514.34;5110239;28;20034;-64
2021/11/08 07:52:29;;;;;;;12.80;3.92;;;;;;;29.44;31.45;96511.16;5110183;28;20020;-65
2021/11/08 07:54:55;;;;;;;9.18;3.67;;;;;;;28.76;34.81;96507.13;5110231;28;20030;-68
2021/11/08 07:57:20;;;;;;;9.57;3.83;;;;;;;28.52;35.55;96500.84;5110183;28;20051;-65
2021/11/08 07:59:47;;;;;;;7.38;3.83;;;;;;;28.34;35.33;96496.53;5110186;28;20034;-62
2021/11/08 08:02:14;;;;;;;7.10;3.45;;;;;;;28.06;35.40;96496.91;5110007;28;20027;-65
2021/11/08 08:04:39;;;;;;;9.95;3.08;;;;;;;27.90;36.70;96495.03;5109967;28;20065;-62
2021/11/08 08:07:05;;;;;;;10.63;2.90;;;;;;;27.52;35.79;96490.16;5109761;28;20397;-66
2021/11/08 08:09:31;;;;;;;12.05;3.70;;;;;;;26.99;37.42;96485.91;5109905;28;20032;-65
2021/11/08 08:11:57;;;;;;;12.57;3.63;;;;;;;26.61;37.30;96493.44;5109728;28;20024;-64
2021/11/08 08:14:23;;;;;;;9.45;3.33;;;;;;;26.05;38.57;96486.59;5109691;28;20425;-64
2021/11/08 08:16:50;;;;;;;13.25;3.95;;;;;;;25.41;39.82;96486.72;5109416;28;20048;-65
2021/11/08 08:19:16;;;;;;;10.48;3.70;;;;;;;24.84;41.33;96480.63;5095854;28;20028;-65
2021/11/08 08:21:41;;;;;;;11.68;3.58;;;;;;;24.62;41.87;96490.72;5096138;28;20031;-67
2021/11/08 08:24:07;;;;;;;10.05;3.67;;;;;;;24.60;42.28;96490.84;5096082;28;20028;-66
2021/11/08 08:26:36;;;;;;;8.35;3.30;;;;;;;24.27;42.93;96493.13;5094695;28;20367;-64
2021/11/08 08:29:05;;;;;;;10.80;3.40;;;;;;;23.74;42.68;96495.31;5095903;28;20477;-63
2021/11/08 08:31:32;;;;;;;11.25;3.50;;;;;;;23.48;43.43;96483.38;5095869;28;20039;-63
2021/11/08 08:33:58;;;;;;;8.65;3.20;;;;;;;23.56;43.37;96488.03;5095875;28;20035;-64
2021/11/08 08:36:24;;;;;;;10.80;3.80;;;;;;;23.44;43.26;96478.47;5095921;28;20024;-67
2021/11/08 08:38:50;;;;;;;8.82;4.20;;;;;;;23.52;42.49;96480.44;5095849;28;20025;-62
2021/11/08 08:41:16;;;;;;;10.45;4.78;;;;;;;23.47;42.95;96476.38;5095724;28;20055;-63
2021/11/08 08:43:42;;;;;;;13.68;5.72;;;;;;;23.53;43.13;96474.97;5095628;28;20473;-65
2021/11/08 08:46:08;;;;;;;13.05;5.65;;;;;;;23.51;44.01;96479.59;5095500;28;20028;-65
2021/11/08 08:48:34;;;;;;;15.55;6.30;;;;;;;23.46;43.05;96472.03;5095577;28;20024;-65
2021/11/08 08:51:03;;;;;;;13.48;5.85;;;;;;;23.44;41.65;96475.81;5095548;28;20024;-63
2021/11/08 08:53:29;;;;;;;15.48;5.88;;;;;;;23.42;41.53;96470.59;5095508;28;20035;-66
2021/11/08 08:55:55;;;;;;;11.70;6.97;;;;;;;23.38;40.95;96469.22;5095582;28;20024;-65
2021/11/08 08:58:21;;;;;;;10.95;5.25;;;;;;;23.43;40.96;96468.78;5095299;28;20024;-67
2021/11/08 09:00:49;;;;;;;9.10;6.25;;;;;;;23.50;42.26;96464.56;5095461;28;20123;-60
2021/11/08 09:03:16;;;;;;;19.83;6.25;;;;;;;23.48;40.72;96464.72;5095406;28;20530;-62
2021/11/08 09:05:43;;;;;;;11.07;6.18;;;;;;;23.22;41.44;96467.94;5095237;28;20017;-65
2021/11/08 09:08:09;;;;;;;17.50;7.22;;;;;;;23.17;42.35;96464.81;5095199;28;20050;-65
2021/11/08 09:10:35;;;;;;;20.40;6.60;;;;;;;23.27;43.00;96466.66;5095192;28;20045;-67
2021/11/08 09:13:03;;;;;;;23.77;7.35;;;;;;;23.35;42.28;96470.31;5095228;28;20063;-63
2021/11/08 09:15:30;;;;;;;13.25;7.20;;;;;;;23.38;41.60;96463.06;5095099;28;20070;-66
2021/11/08 09:17:57;;;;;;;11.18;7.63;;;;;;;23.49;43.04;96460.22;5094935;28;20512;-66
2021/11/08 09:20:24;;;;;;;12.90;8.02;;;;;;;23.61;43.51;96458.25;5094873;28;20016;-63
2021/11/08 09:22:50;;;;;;;18.92;7.65;;;;;;;23.60;43.56;96459.25;5094945;28;20062;-65
2021/11/08 09:25:22;;;;;;;13.75;7.85;;;;;;;23.72;42.85;96451.91;5094859;28;20028;-62
2021/11/08 09:27:52;;;;;;;12.73;6.85;;;;;;;23.95;41.51;96452.41;5094905;28;20381;-66
2021/11/08 09:30:20;;;;;;;18.98;6.93;;;;;;;24.11;40.36;96451.78;5093988;28;20168;-65
2021/11/08 09:32:47;;;;;;;20.48;7.60;;;;;;;24.22;40.29;96445.47;5094667;28;20032;-62
2021/11/08 09:35:13;;;;;;;14.18;7.55;;;;;;;24.27;40.70;96441.50;5094766;28;20465;-63
2021/11/08 09:37:47;;;;;;;11.05;6.72;;;;;;;24.21;41.05;96432.25;5094699;28;20031;-65
2021/11/08 09:40:21;;;;;;;15.07;7.53;;;;;;;24.13;41.34;96434.78;5094563;28;20028;-66
2021/11/08 09:42:50;;;;;;;13.43;7.07;;;;;;;24.05;41.69;96422.16;5093381;28;20024;-64
2021/11/08 09:45:16;;;;;;;17.23;7.43;;;;;;;24.02;40.22;96427.78;5094399;28;20442;-63
2021/11/08 09:47:43;;;;;;;10.80;6.03;;;;;;;24.03;40.39;96432.16;5094376;28;20103;-62
2021/11/08 09:50:11;;;;;;;15.57;7.43;;;;;;;23.97;39.92;96417.56;5094502;28;20027;-67
2021/11/08 09:52:42;;;;;;;16.98;8.10;;;;;;;23.97;40.53;96417.56;5094541;28;20389;-63
2021/11/08 09:55:12;;;;;;;11.48;8.10;;;;;;;24.00;40.60;96411.06;5094410;28;20489;-64
2021/11/08 09:57:39;;;;;;;13.13;7.72;;;;;;;23.92;40.15;96409.13;5094184;28;20028;-63
2021/11/08 10:00:27;;;;;;;14.10;7.20;;;;;;;23.90;41.08;96411.09;5094258;28;20017;-63
2021/11/08 10:03:00;;;;;;;15.57;8.00;;;;;;;23.74;42.30;96407.22;5094156;28;20063;-61
2021/11/08 10:05:29;;;;;;;15.15;8.45;;;;;;;23.75;43.24;96400.88;5094166;28;20103;-65
2021/11/08 10:07:56;;;;;;;15.10;8.68;;;;;;;23.68;43.01;96405.13;5094308;28;20023;-65
2021/11/08 10:10:22;;;;;;;15.25;9.35;;;;;;;23.68;42.95;96403.28;5093988;28;20107;-67
2021/11/08 10:12:52;;;;;;;14.95;9.13;;;;;;;23.58;42.55;96400.66;5092820;28;20039;-63
2021/11/08 10:15:19;;;;;;;16.70;8.40;;;;;;;23.71;43.11;96396.81;5093971;28;20680;-62
2021/11/08 10:17:46;;;;;;;20.58;9.38;;;;;;;23.83;41.56;96400.16;5093635;28;20040;-68
2021/11/08 10:20:27;;;;;;;19.13;8.90;;;;;;;23.90;41.50;96405.78;5094011;28;20386;-65
2021/11/08 10:22:54;;;;;;;21.27;8.90;;;;;;;23.86;42.32;96397.19;5093799;28;20027;-65
2021/11/08 10:25:20;;;;;;;16.60;10.23;;;;;;;23.87;42.74;96390.84;5093697;28;20039;-66
2021/11/08 10:27:46;;;;;;;16.05;9.23;;;;;;;23.89;42.52;96394.25;5093699;28;20389;-65
2021/11/08 10:30:24;;;;;;;14.80;9.45;;;;;;;23.90;42.55;96389.75;5093574;28;20027;-65
2021/11/08 10:33:16;;;;;;;18.90;8.30;;;;;;;23.92;41.86;96391.28;5093551;28;20524;-61
2021/11/08 10:35:48;;;;;;;14.55;7.88;;;;;;;23.87;42.52;96385.53;5093500;28;20031;-63
2021/11/08 10:38:24;;;;;;;14.15;7.95;;;;;;;23.90;42.15;96381.75;5093500;28;20027;-66
2021/11/08 10:40:56;;;;;;;11.52;8.13;;;;;;;23.82;41.59;96380.66;5093379;28;20032;-63
2021/11/08 10:43:31;;;;;;;14.45;6.97;;;;;;;23.75;41.93;96370.69;5093559;28;20028;-64
2021/11/08 10:46:00;;;;;;;13.60;7.43;;;;;;;23.71;41.76;96378.97;5093405;28;20058;-65
2021/11/08 10:48:31;;;;;;;13.55;6.63;;;;;;;23.69;42.13;96383.63;5093464;28;20419;-66
2021/11/08 10:50:59;;;;;;;11.30;6.47;;;;;;;23.65;40.66;96374.22;5093497;28;20016;-64
2021/11/08 10:53:25;;;;;;;12.35;6.40;;;;;;;23.64;41.04;96375.22;5093570;28;20091;-66
2021/11/08 10:55:53;;;;;;;12.73;6.65;;;;;;;23.66;40.68;96372.41;5092165;28;20520;-65
2021/11/08 10:58:20;;;;;;;11.48;6.15;;;;;;;23.59;40.14;96370.31;5093275;28;20020;-64
2021/11/08 11:01:01;;;;;;;10.93;5.63;;;;;;;23.45;40.14;96368.91;5093222;28;20028;-65
2021/11/08 11:03:28;;;;;;;11.48;5.65;;;;;;;23.39;39.93;96371.34;5093331;28;20496;-64
2021/11/08 11:06:03;;;;;;;13.52;5.70;;;;;;;23.35;39.57;96363.59;5093275;28;20027;-64
2021/11/08 11:15:15;;;;;;;13.05;6.45;;;;;;;23.27;40.05;96357.28;5093049;28;20400;-62
2021/11/08 11:17:46;;;;;;;13.93;6.93;;;;;;;23.12;40.05;96362.22;5092969;28;20052;-65
2021/11/08 11:20:18;;;;;;;11.23;5.80;;;;;;;23.03;39.61;96356.72;5092992;28;20027;-64
2021/11/08 11:22:53;;;;;;;15.20;6.25;;;;;;;22.93;41.27;96359.41;5093042;28;20064;-64
2021/11/08 11:25:21;;;;;;;13.77;6.88;;;;;;;22.96;40.83;96356.47;5093050;28;20472;-63
2021/11/08 11:27:51;;;;;;;13.77;5.78;;;;;;;22.91;40.41;96360.53;5092932;28;20020;-68
2021/11/08 11:30:38;;;;;;;11.05;6.25;;;;;;;22.95;40.71;96359.28;5092973;28;20067;-63
2021/11/08 11:33:16;;;;;;;14.93;6.53;;;;;;;22.92;41.32;96359.53;5093042;28;20035;-64
2021/11/08 11:35:48;;;;;;;13.45;6.28;;;;;;;22.87;40.65;96359.97;5093148;28;20012;-61
2021/11/08 11:38:23;;;;;;;16.20;6.35;;;;;;;22.84;40.57;96360.25;5092915;28;20111;-63
2021/11/08 11:40:58;;;;;;;13.38;6.65;;;;;;;22.80;41.11;96357.03;5092805;28;20016;-61
2021/11/08 11:43:34;;;;;;;15.95;6.88;;;;;;;22.84;40.73;96360.25;5093012;28;20024;-67
2021/11/08 11:46:00;;;;;;;11.32;6.95;;;;;;;22.81;41.18;96357.84;5092733;28;20060;-62
2021/11/08 11:48:29;;;;;;;13.27;6.40;;;;;;;22.77;40.95;96354.63;5092762;28;20028;-62
2021/11/08 11:50:57;;;;;;;13.45;6.93;;;;;;;22.82;41.27;96356.88;5092850;28;20016;-63
2021/11/08 11:53:24;;;;;;;10.77;6.72;;;;;;;22.73;41.70;96355.91;5094818;28;20555;-62
2021/11/08 11:55:50;;;;;;;17.50;7.75;;;;;;;22.64;42.35;96357.59;5096693;28;20115;-67
2021/11/08 11:58:16;;;;;;;13.98;6.50;;;;;;;22.61;41.13;96357.00;5096533;28;20024;-67
2021/11/08 12:00:45;;;;;;;17.10;6.72;;;;;;;22.58;41.83;96361.63;5096543;28;20024;-62
2021/11/08 12:03:11;;;;;;;11.48;6.55;;;;;;;22.60;41.52;96350.81;5096447;28;20020;-66
2021/11/08 12:05:37;;;;;;;11.13;6.07;;;;;;;22.54;41.71;96359.34;5096367;28;20036;-65
2021/11/08 12:08:07;;;;;;;13.85;6.15;;;;;;;22.58;41.87;96358.13;5096671;28;20021;-63
2021/11/08 12:10:42;;;;;;;14.93;6.70;;;;;;;22.44;42.38;96354.84;5096330;28;20024;-63
2021/11/08 12:13:15;;;;;;;14.35;7.18;;;;;;;22.36;41.90;96361.84;5096272;28;20111;-68
2021/11/08 12:15:41;;;;;;;10.55;6.45;;;;;;;22.32;41.80;96356.78;5096188;28;20476;-64
2021/11/08 12:18:11;;;;;;;12.68;6.90;;;;;;;22.21;42.09;96352.41;5096079;28;20641;-63
2021/11/08 12:20:43;;;;;;;16.40;6.35;;;;;;;22.26;41.83;96356.47;5096161;28;20469;-68
2021/11/08 12:23:28;;;;;;;15.63;6.65;;;;;;;22.25;42.42;96350.34;5096011;28;20493;-61
2021/11/08 12:25:54;;;;;;;13.60;6.32;;;;;;;22.16;42.15;96340.50;5095926;28;20024;-65
2021/11/08 12:28:29;;;;;;;12.82;5.85;;;;;;;22.14;42.88;96353.09;5095881;28;20024;-66
2021/11/08 12:31:20;;;;;;;15.95;7.15;;;;;;;22.03;44.00;96344.22;5096029;28;20027;-64
2021/11/08 12:33:58;;;;;;;19.63;7.18;;;;;;;21.96;43.94;96343.94;5087419;28;20040;-66
2021/11/08 12:36:25;;;;;;;14.68;7.30;;;;;;;21.98;44.56;96343.81;5095759;28;20055;-67
2021/11/08 12:39:17;;;;;;;15.82;7.45;;;;;;;21.93;44.35;96340.69;5095809;28;20496;-62
2021/11/08 12:41:48;;;;;;;15.20;7.18;;;;;;;21.95;44.91;96339.56;5095862;28;20024;-63
2021/11/08 12:44:33;;;;;;;11.65;6.97;;;;;;;21.98;44.97;96333.16;5095867;28;20115;-65
2021/11/08 12:46:59;;;;;;;14.13;7.07;;;;;;;22.07;44.51;96334.16;5095561;28;20038;-63
2021/11/08 12:49:31;;;;;;;16.63;7.43;;;;;;;22.05;43.90;96328.97;5095546;28;20354;-68
2021/11/08 12:52:12;;;;;;;9.35;6.13;;;;;;;22.04;43.76;96326.44;5095583;28;20051;-65
2021/11/08 12:54:49;;;;;;;11.23;6.82;;;;;;;22.03;43.50;96333.56;5095542;28;20035;-64
2021/11/08 12:57:16;;;;;;;13.15;6.65;;;;;;;22.06;42.81;96332.44;5095583;28;20085;-63
2021/11/08 13:03:12;;;;;;;13.80;6.57;;;;;;;22.04;43.13;96332.63;5095349;28;20113;-66
2021/11/08 13:05:44;;;;;;;8.35;5.57;;;;;;;22.09;43.05;96329.53;5095119;28;20058;-61
2021/11/08 13:08:18;;;;;;;17.70;6.35;;;;;;;22.12;42.78;96333.75;5095408;28;20024;-63
2021/11/08 13:10:56;;;;;;;13.00;5.85;;;;;;;22.17;43.08;96326.19;5095147;28;20028;-68
2021/11/08 13:13:23;;;;;;;11.63;6.38;;;;;;;22.20;42.72;96329.44;5095272;28;20032;-65
2021/11/08 13:15:49;;;;;;;14.57;5.65;;;;;;;22.16;42.98;96335.16;5095279;28;20027;-63
2021/11/08 13:18:15;;;;;;;12.80;6.13;;;;;;;22.09;42.37;96330.38;5094785;28;20044;-66
2021/11/08 13:20:47;;;;;;;14.32;6.38;;;;;;;22.08;42.28;96331.38;5094973;28;20028;-69
2021/11/08 13:23:17;;;;;;;10.15;6.20;;;;;;;22.02;42.32;96334.56;5094919;28;20028;-67
2021/11/08 13:25:52;;;;;;;10.73;5.73;;;;;;;21.97;42.91;96336.78;5094663;28;20074;-64
2021/11/08 13:28:27;;;;;;;10.70;5.60;;;;;;;21.89;42.46;96334.81;5094934;28;20373;-63
2021/11/08 13:30:56;;;;;;;25.80;12.18;;;;;;;21.81;42.66;96326.63;5094978;28;20024;-63
2021/11/08 13:33:28;;;;;;;11.73;6.00;;;;;;;21.75;42.23;96330.69;5094820;28;20377;-66
2021/11/08 13:35:55;;;;;;;14.00;5.75;;;;;;;21.68;41.69;96334.81;5094814;28;20099;-68